createdAt,value
2022-08-14T00:02:02.971Z,21.30
2022-08-14T00:04:34.106Z,21.20
2022-08-14T00:07:11.563Z,21.40
2022-08-14T00:09:56.048Z,21.40
2022-08-14T00:12:33.762Z,21.40
2022-08-14T00:15:43.311Z,21.40
2022-08-14T00:18:30.561Z,21.40
2022-08-14T00:21:02.875Z,21.40
2022-08-14T00:23:30.158Z,21.40
2022-08-14T00:26:05.878Z,21.30
2022-08-14T00:28:35.271Z,21.30
2022-08-14T00:31:02.967Z,21.40
2022-08-14T00:33:52.357Z,21.40
2022-08-14T00:36:35.716Z,21.40
2022-08-14T00:39:06.453Z,21.40
2022-08-14T00:41:34.468Z,21.40
2022-08-14T00:44:01.544Z,21.40
2022-08-14T00:46:33.055Z,21.40
2022-08-14T00:49:00.961Z,21.50
2022-08-14T00:51:36.825Z,21.50
2022-08-14T00:54:17.003Z,21.60
2022-08-14T00:56:54.746Z,21.60
2022-08-14T00:59:28.574Z,21.50
2022-08-14T01:01:58.806Z,21.40
2022-08-14T01:04:37.889Z,21.30
2022-08-14T01:07:19.820Z,21.20
2022-08-14T01:10:02.422Z,21.20
2022-08-14T01:12:31.026Z,21.10
2022-08-14T01:15:00.084Z,21.10
2022-08-14T01:17:50.652Z,21.10
2022-08-14T01:20:39.810Z,21.10
2022-08-14T01:23:16.855Z,21.10
2022-08-14T01:25:51.419Z,21.20
2022-08-14T01:28:46.271Z,21.30
2022-08-14T01:31:14.630Z,21.30
2022-08-14T01:33:59.526Z,21.30
2022-08-14T01:36:35.540Z,21.30
2022-08-14T01:39:13.949Z,21.40
2022-08-14T01:41:44.332Z,21.40
2022-08-14T01:44:32.369Z,21.50
2022-08-14T01:47:12.353Z,21.50
2022-08-14T01:50:00.071Z,21.40
2022-08-14T01:52:33.991Z,21.50
2022-08-14T01:55:19.958Z,21.60
2022-08-14T01:57:49.739Z,21.60
2022-08-14T02:00:29.894Z,21.60
2022-08-14T02:03:02.820Z,21.60
2022-08-14T02:05:35.741Z,21.70
2022-08-14T02:08:09.133Z,21.60
2022-08-14T02:10:46.134Z,21.60
2022-08-14T02:13:16.453Z,21.50
2022-08-14T02:15:45.781Z,21.40
2022-08-14T02:18:16.324Z,21.30
2022-08-14T02:20:45.371Z,21.00
2022-08-14T02:23:14.411Z,20.80
2022-08-14T02:25:44.236Z,20.60
2022-08-14T02:28:56.315Z,20.60
2022-08-14T02:31:09.112Z,20.50
2022-08-14T02:33:39.276Z,20.50
2022-08-14T02:37:04.088Z,20.40
2022-08-14T02:38:53.726Z,20.30
2022-08-14T02:41:20.925Z,20.40
2022-08-14T02:43:48.585Z,20.50
2022-08-14T02:46:20.587Z,20.60
2022-08-14T02:49:01.893Z,20.50
2022-08-14T02:51:32.330Z,20.70
2022-08-14T02:54:01.858Z,20.70
2022-08-14T02:57:15.411Z,20.60
2022-08-14T02:59:18.095Z,20.60
2022-08-14T03:01:51.006Z,20.50
2022-08-14T03:04:22.215Z,20.60
2022-08-14T03:07:06.415Z,20.60
2022-08-14T03:09:41.908Z,20.60
2022-08-14T03:12:30.863Z,20.40
2022-08-14T03:15:02.790Z,20.20
2022-08-14T03:17:31.802Z,20.30
2022-08-14T03:20:11.210Z,20.40
2022-08-14T03:22:42.018Z,20.40
2022-08-14T03:25:10.843Z,20.50
2022-08-14T03:27:48.585Z,20.50
2022-08-14T03:30:39.531Z,20.50
2022-08-14T03:33:10.303Z,20.50
2022-08-14T03:36:00.306Z,20.30
2022-08-14T03:39:13.949Z,20.20
2022-08-14T03:41:24.393Z,20.30
2022-08-14T03:43:57.783Z,20.30
2022-08-14T03:46:51.758Z,20.30
2022-08-14T03:49:28.257Z,20.30
2022-08-14T03:51:58.501Z,20.30
2022-08-14T03:54:29.078Z,20.20
2022-08-14T03:57:00.822Z,20.30
2022-08-14T03:59:30.930Z,20.10
2022-08-14T04:02:01.747Z,20.10
2022-08-14T04:04:33.452Z,19.90
2022-08-14T04:07:00.961Z,19.90
2022-08-14T04:09:28.256Z,19.80
2022-08-14T04:11:58.291Z,19.70
2022-08-14T04:14:26.674Z,19.60
2022-08-14T04:16:53.562Z,19.60
2022-08-14T04:19:24.577Z,19.70
2022-08-14T04:22:02.213Z,19.80
2022-08-14T04:24:38.635Z,19.80
2022-08-14T04:27:13.003Z,19.80
2022-08-14T04:29:44.985Z,19.80
2022-08-14T04:33:01.416Z,19.80
2022-08-14T04:35:00.878Z,19.80
2022-08-14T04:37:46.581Z,19.90
2022-08-14T04:40:40.553Z,19.90
2022-08-14T04:43:39.204Z,19.90
2022-08-14T04:46:56.403Z,19.90
2022-08-14T04:49:00.328Z,20.00
2022-08-14T04:51:28.276Z,20.10
2022-08-14T04:53:57.450Z,20.10
2022-08-14T04:56:31.303Z,20.10
2022-08-14T04:59:09.591Z,20.10
2022-08-14T05:01:44.790Z,20.20
2022-08-14T05:04:19.688Z,20.20
2022-08-14T05:06:49.204Z,20.40
2022-08-14T05:09:17.211Z,20.40
2022-08-14T05:11:44.734Z,20.40
2022-08-14T05:14:17.129Z,20.50
2022-08-14T05:17:01.938Z,20.50
2022-08-14T05:19:30.018Z,20.60
2022-08-14T05:22:16.007Z,20.60
2022-08-14T05:24:48.740Z,20.70
2022-08-14T05:27:22.589Z,20.80
2022-08-14T05:29:53.141Z,21.00
2022-08-14T05:32:20.550Z,21.10
2022-08-14T05:34:48.174Z,21.60
2022-08-14T05:37:17.662Z,22.40
2022-08-14T05:39:44.555Z,23.50
2022-08-14T05:42:21.631Z,24.40
2022-08-14T05:44:54.211Z,24.90
2022-08-14T05:47:23.208Z,25.40
2022-08-14T05:49:51.572Z,25.90
2022-08-14T05:52:26.367Z,26.30
2022-08-14T05:55:10.167Z,26.70
2022-08-14T05:58:06.977Z,26.80
2022-08-14T06:00:41.394Z,27.20
2022-08-14T06:03:17.297Z,27.60
2022-08-14T06:05:45.681Z,27.80
2022-08-14T06:08:33.370Z,28.20
2022-08-14T06:11:08.496Z,28.30
2022-08-14T06:13:45.713Z,28.50
2022-08-14T06:16:17.514Z,28.80
2022-08-14T06:18:47.432Z,29.30
2022-08-14T06:21:15.931Z,29.60
2022-08-14T06:23:44.519Z,29.60
2022-08-14T06:26:16.353Z,29.80
2022-08-14T06:28:47.863Z,30.00
2022-08-14T06:31:20.474Z,30.10
2022-08-14T06:35:02.970Z,30.70
2022-08-14T06:36:35.467Z,31.00
2022-08-14T06:39:02.574Z,30.50
2022-08-14T06:41:56.784Z,30.60
2022-08-14T06:44:16.328Z,30.50
2022-08-14T06:46:49.416Z,30.70
2022-08-14T06:49:16.448Z,30.80
2022-08-14T06:51:46.800Z,31.10
2022-08-14T06:54:16.792Z,31.40
2022-08-14T06:56:44.558Z,31.50
2022-08-14T06:59:21.650Z,31.80
2022-08-14T07:02:13.218Z,31.80
2022-08-14T07:04:59.325Z,32.10
2022-08-14T07:07:28.685Z,32.60
2022-08-14T07:09:55.850Z,32.90
2022-08-14T07:12:54.694Z,32.90
2022-08-14T07:15:11.004Z,32.80
2022-08-14T07:17:52.126Z,32.80
2022-08-14T07:20:30.919Z,33.10
2022-08-14T07:23:10.898Z,33.40
2022-08-14T07:25:42.170Z,33.70
2022-08-14T07:28:20.901Z,33.20
2022-08-14T07:30:50.697Z,33.20
2022-08-14T07:33:24.434Z,33.10
2022-08-14T07:35:58.935Z,33.50
2022-08-14T07:38:32.029Z,33.70
2022-08-14T07:41:00.804Z,33.80
2022-08-14T07:43:27.865Z,34.00
2022-08-14T07:45:55.390Z,33.90
2022-08-14T07:48:25.266Z,33.20
2022-08-14T07:50:55.302Z,32.70
2022-08-14T07:53:29.737Z,32.40
2022-08-14T07:56:21.735Z,32.50
2022-08-14T07:58:51.693Z,32.90
2022-08-14T08:01:19.976Z,33.00
2022-08-14T08:03:49.597Z,33.10
2022-08-14T08:06:18.804Z,33.10
2022-08-14T08:09:01.229Z,33.10
2022-08-14T08:11:34.824Z,33.20
2022-08-14T08:14:16.290Z,33.30
2022-08-14T08:16:47.425Z,33.40
2022-08-14T08:19:19.357Z,33.50
2022-08-14T08:21:47.189Z,33.30
2022-08-14T08:24:19.885Z,33.50
2022-08-14T08:26:50.759Z,33.90
2022-08-14T08:29:28.388Z,33.90
2022-08-14T08:31:56.739Z,33.70
2022-08-14T08:34:29.544Z,33.70
2022-08-14T08:37:00.099Z,33.70
2022-08-14T08:39:42.195Z,33.60
2022-08-14T08:42:31.254Z,33.70
2022-08-14T08:45:06.754Z,33.60
2022-08-14T08:47:40.536Z,33.30
2022-08-14T08:50:22.785Z,33.10
2022-08-14T08:52:54.161Z,33.30
2022-08-14T08:55:29.823Z,33.40
2022-08-14T08:57:58.946Z,33.40
2022-08-14T09:00:28.226Z,33.20
2022-08-14T09:03:02.226Z,33.20
2022-08-14T09:05:31.184Z,33.40
2022-08-14T09:08:30.204Z,33.60
2022-08-14T09:11:00.007Z,33.20
2022-08-14T09:13:27.846Z,32.90
2022-08-14T09:15:58.030Z,32.70
2022-08-14T09:18:27.204Z,32.60
2022-08-14T09:20:58.550Z,33.00
2022-08-14T09:23:34.546Z,32.90
2022-08-14T09:26:21.392Z,32.80
2022-08-14T09:28:48.542Z,32.90
2022-08-14T09:31:18.347Z,32.80
2022-08-14T09:33:57.607Z,32.10
2022-08-14T09:37:11.787Z,31.30
2022-08-14T09:39:54.821Z,30.70
2022-08-14T09:42:59.322Z,30.50
2022-08-14T09:45:53.539Z,30.40
2022-08-14T09:48:29.376Z,30.30
2022-08-14T09:54:19.312Z,30.10
2022-08-14T09:56:42.478Z,30.00
2022-08-14T09:59:16.601Z,30.00
2022-08-14T10:01:52.885Z,30.00
2022-08-14T10:04:34.257Z,29.90
2022-08-14T10:07:03.764Z,29.80
2022-08-14T10:09:33.631Z,29.60
2022-08-14T10:55:39.629Z,29.70
2022-08-14T10:58:14.725Z,29.90
2022-08-14T11:00:56.730Z,29.90
2022-08-14T11:03:26.700Z,29.90
2022-08-14T11:06:18.227Z,29.90
2022-08-14T11:08:45.792Z,29.90
2022-08-14T11:11:13.066Z,30.10
2022-08-14T11:13:44.156Z,30.20
2022-08-14T11:16:12.008Z,30.10
2022-08-14T11:18:46.309Z,30.10
2022-08-14T11:21:22.011Z,30.10
2022-08-14T11:23:53.709Z,30.10
2022-08-14T11:26:28.083Z,30.10
2022-08-14T11:29:00.262Z,30.10
2022-08-14T11:31:35.620Z,30.10
2022-08-14T11:34:06.172Z,30.30
2022-08-14T11:37:07.675Z,30.30
2022-08-14T11:39:40.770Z,30.20
2022-08-14T11:42:56.641Z,30.40
2022-08-14T11:45:11.188Z,30.50
2022-08-14T11:48:10.714Z,30.50
2022-08-14T11:50:36.919Z,30.50
2022-08-14T11:53:05.638Z,30.40
2022-08-14T11:55:38.075Z,30.30
2022-08-14T11:58:11.902Z,30.30
2022-08-14T12:00:54.674Z,30.30
2022-08-14T12:03:37.317Z,30.20
2022-08-14T12:06:28.842Z,30.20
2022-08-14T12:09:03.494Z,30.30
2022-08-14T12:11:43.533Z,30.30
2022-08-14T12:14:13.565Z,30.20
2022-08-14T12:17:06.581Z,30.30
2022-08-14T12:19:53.742Z,30.40
2022-08-14T12:22:45.540Z,30.40
2022-08-14T12:25:21.775Z,30.50
2022-08-14T12:27:54.760Z,30.50
2022-08-14T12:30:35.998Z,30.60
2022-08-14T12:33:27.108Z,30.60
2022-08-14T12:36:00.516Z,30.50
2022-08-14T12:38:43.734Z,30.30
2022-08-14T12:41:20.776Z,30.30
2022-08-14T12:43:55.569Z,30.40
2022-08-14T12:46:29.351Z,30.50
2022-08-14T12:48:58.962Z,30.40
2022-08-14T12:51:27.961Z,30.50
2022-08-14T12:53:59.654Z,30.50
2022-08-14T12:56:32.795Z,30.50
2022-08-14T12:59:01.953Z,30.50
2022-08-14T13:01:31.787Z,30.50
2022-08-14T13:04:18.777Z,30.70
2022-08-14T13:06:51.256Z,30.80
2022-08-14T13:09:20.147Z,30.60
2022-08-14T13:11:58.393Z,30.50
2022-08-14T13:14:29.822Z,30.40
2022-08-14T13:16:58.757Z,30.50
2022-08-14T13:19:28.260Z,30.50
2022-08-14T13:22:05.334Z,30.60
2022-08-14T13:24:39.430Z,30.60
2022-08-14T13:27:09.891Z,30.70
2022-08-14T13:29:43.763Z,30.90
2022-08-14T13:32:14.479Z,30.90
2022-08-14T13:34:45.431Z,30.90
2022-08-14T13:37:15.136Z,30.90
2022-08-14T13:39:56.360Z,30.80
2022-08-14T13:42:30.289Z,30.80
2022-08-14T13:45:03.290Z,30.90
2022-08-14T13:47:33.064Z,30.80
2022-08-14T13:50:04.659Z,30.90
2022-08-14T13:52:54.900Z,31.00
2022-08-14T13:55:35.501Z,31.00
2022-08-14T13:58:05.006Z,31.00
2022-08-14T14:00:53.275Z,31.00
2022-08-14T14:03:24.365Z,31.00
2022-08-14T14:05:54.497Z,31.00
2022-08-14T14:08:43.620Z,31.00
2022-08-14T14:11:10.239Z,31.00
2022-08-14T14:13:44.679Z,31.00
2022-08-14T14:16:15.311Z,30.90
2022-08-14T14:18:52.495Z,31.00
2022-08-14T14:21:21.951Z,31.10
2022-08-14T14:23:49.247Z,31.00
2022-08-14T14:26:23.096Z,31.00
2022-08-14T14:28:56.505Z,31.10
2022-08-14T14:31:29.576Z,31.10
2022-08-14T14:33:59.915Z,31.10
2022-08-14T14:36:30.545Z,31.00
2022-08-14T14:39:01.298Z,31.00
2022-08-14T14:41:55.952Z,30.90
2022-08-14T14:44:32.706Z,31.00
2022-08-14T14:47:00.790Z,30.80
2022-08-14T14:49:42.092Z,30.80
2022-08-14T14:52:27.851Z,30.90
2022-08-14T14:54:58.449Z,30.80
2022-08-14T14:57:35.201Z,30.80
2022-08-14T15:00:05.813Z,30.80
2022-08-14T15:02:39.220Z,30.80
2022-08-14T15:05:08.328Z,31.00
2022-08-14T15:07:38.818Z,31.10
2022-08-14T15:10:28.037Z,31.00
2022-08-14T15:13:03.434Z,30.90
2022-08-14T15:15:32.731Z,31.20
2022-08-14T15:18:00.290Z,31.20
2022-08-14T15:20:31.010Z,31.10
2022-08-14T15:23:12.068Z,31.20
2022-08-14T15:25:41.199Z,31.10
2022-08-14T15:28:12.608Z,31.00
2022-08-14T15:30:41.495Z,30.90
2022-08-14T15:33:09.231Z,30.90
2022-08-14T15:35:44.928Z,31.00
2022-08-14T15:38:13.720Z,31.00
2022-08-14T15:40:44.522Z,31.10
2022-08-14T15:43:18.795Z,31.20
2022-08-14T15:45:46.239Z,31.20
2022-08-14T15:48:22.022Z,31.30
2022-08-14T15:50:50.946Z,31.20
2022-08-14T15:53:18.919Z,31.20
2022-08-14T15:55:46.609Z,31.20
2022-08-14T15:58:14.981Z,31.30
2022-08-14T16:01:00.550Z,31.30
2022-08-14T16:03:35.181Z,31.50
2022-08-14T16:06:05.885Z,31.50
2022-08-14T16:08:38.652Z,31.50
2022-08-14T16:11:10.026Z,31.50
2022-08-14T16:13:44.673Z,31.50
2022-08-14T16:16:47.545Z,31.40
2022-08-14T16:19:10.081Z,31.40
2022-08-14T16:21:40.150Z,31.30
2022-08-14T16:27:00.946Z,31.20
2022-08-14T16:29:33.069Z,31.10
2022-08-14T16:32:27.045Z,31.00
2022-08-14T16:34:54.856Z,30.90
2022-08-14T16:37:30.624Z,30.80
2022-08-14T16:40:12.713Z,30.70
2022-08-14T16:40:24.218Z,31.20
2022-08-14T16:43:03.846Z,30.60
2022-08-14T16:45:30.979Z,30.70
2022-08-14T16:48:00.561Z,30.60
2022-08-14T16:50:40.402Z,30.50
2022-08-14T16:53:11.895Z,30.50
2022-08-14T16:55:53.592Z,30.40
2022-08-14T16:58:29.911Z,30.40
2022-08-14T17:01:22.784Z,30.10
2022-08-14T17:04:03.488Z,29.90
2022-08-14T17:06:43.074Z,30.00
2022-08-14T17:09:33.283Z,30.00
2022-08-14T17:12:33.514Z,29.90
2022-08-14T17:15:09.772Z,29.80
2022-08-14T17:17:40.112Z,29.80
2022-08-14T17:21:02.152Z,29.50
2022-08-14T17:22:59.200Z,29.40
2022-08-14T17:25:38.045Z,29.40
2022-08-14T17:28:50.107Z,29.50
2022-08-14T17:31:03.606Z,29.50
2022-08-14T17:36:24.184Z,29.50
2022-08-14T17:39:07.283Z,29.40
2022-08-14T17:41:43.361Z,29.20
2022-08-14T17:44:21.675Z,29.00
2022-08-14T17:46:55.288Z,28.90
2022-08-14T17:49:44.612Z,28.60
2022-08-14T17:52:34.545Z,28.50
2022-08-14T17:55:07.492Z,28.50
2022-08-14T17:57:41.204Z,28.60
2022-08-14T18:00:15.077Z,28.60
2022-08-14T18:02:50.547Z,28.60
2022-08-14T18:05:23.720Z,28.60
2022-08-14T18:08:34.119Z,28.60
2022-08-14T18:10:55.909Z,28.50
2022-08-14T18:13:50.075Z,28.50
2022-08-14T18:16:20.227Z,28.40
2022-08-14T18:18:49.811Z,28.40
2022-08-14T18:21:40.515Z,28.30
2022-08-14T18:24:28.287Z,28.20
2022-08-14T18:27:01.817Z,28.10
2022-08-14T18:29:31.710Z,27.90
2022-08-14T18:31:59.401Z,27.80
2022-08-14T18:34:37.810Z,27.90
2022-08-14T18:37:17.783Z,27.90
2022-08-14T18:40:02.036Z,27.90
2022-08-14T18:42:35.015Z,27.70
2022-08-14T18:45:12.401Z,27.50
2022-08-14T18:48:14.237Z,27.10
2022-08-14T18:50:30.757Z,27.00
2022-08-14T18:53:10.704Z,26.80
2022-08-14T18:55:53.003Z,26.60
2022-08-14T18:58:31.749Z,26.60
2022-08-14T19:01:04.315Z,26.90
2022-08-14T19:03:34.418Z,26.70
2022-08-14T19:06:07.171Z,26.60
2022-08-14T19:08:38.167Z,26.40
2022-08-14T19:11:07.923Z,26.30
2022-08-14T19:13:44.689Z,26.20
2022-08-14T19:16:18.552Z,26.00
2022-08-14T19:18:54.333Z,25.90
2022-08-14T19:21:32.489Z,25.70
2022-08-14T19:24:29.274Z,25.60
2022-08-14T19:27:24.100Z,25.60
2022-08-14T19:30:10.847Z,25.70
2022-08-14T19:32:51.013Z,25.60
2022-08-14T19:35:22.878Z,25.50
2022-08-14T19:37:54.971Z,25.30
2022-08-14T19:40:28.401Z,25.20
2022-08-14T19:42:58.321Z,25.20
2022-08-14T19:45:27.121Z,25.20
2022-08-14T19:47:54.505Z,25.20
2022-08-14T19:50:40.255Z,25.30
2022-08-14T19:53:17.291Z,25.40
2022-08-14T19:55:59.337Z,25.60
2022-08-14T19:58:54.679Z,25.60
2022-08-14T20:01:43.694Z,25.70
2022-08-14T20:04:46.038Z,25.50
2022-08-14T20:07:09.139Z,25.40
2022-08-14T20:11:04.237Z,25.50
2022-08-14T20:12:35.591Z,25.50
2022-08-14T20:15:15.529Z,25.40
2022-08-14T20:33:16.466Z,25.00
2022-08-14T20:35:50.294Z,24.90
2022-08-14T20:38:31.600Z,25.00
2022-08-14T20:41:01.709Z,24.90
2022-08-14T20:43:54.538Z,24.90
2022-08-14T20:46:39.534Z,24.90
2022-08-14T20:49:18.584Z,24.90
2022-08-14T20:51:58.680Z,24.80
2022-08-14T20:54:34.361Z,24.70
2022-08-14T20:57:13.858Z,24.60
2022-08-14T20:59:57.450Z,24.60
2022-08-14T21:02:46.213Z,24.80
2022-08-14T21:05:23.569Z,24.80
2022-08-14T21:08:09.739Z,24.80
2022-08-14T21:10:53.102Z,25.00
2022-08-14T21:14:09.121Z,25.10
2022-08-14T21:16:33.579Z,25.10
2022-08-14T21:18:58.480Z,25.10
2022-08-14T21:21:40.716Z,25.20
2022-08-14T21:24:40.101Z,25.20
2022-08-14T21:27:04.501Z,25.00
2022-08-14T21:29:49.756Z,25.10
2022-08-14T21:32:35.117Z,25.00
2022-08-14T21:35:08.555Z,25.00
2022-08-14T21:37:47.476Z,25.00
2022-08-14T21:40:41.849Z,25.00
2022-08-14T21:43:05.752Z,25.10
2022-08-14T21:45:35.618Z,25.10
2022-08-14T21:48:10.441Z,25.10
2022-08-14T21:51:01.039Z,25.00
2022-08-14T21:53:34.479Z,24.90
2022-08-14T21:56:03.409Z,24.90
2022-08-14T21:58:52.145Z,24.90
2022-08-14T22:01:20.463Z,24.90
2022-08-14T22:03:54.959Z,24.60
2022-08-14T22:06:29.009Z,24.50
2022-08-14T22:08:58.070Z,24.40
2022-08-14T22:11:25.805Z,24.60
2022-08-14T22:13:56.019Z,24.70
2022-08-14T22:17:02.139Z,24.80
2022-08-14T22:19:17.116Z,24.90
2022-08-14T22:21:47.065Z,24.90
2022-08-14T22:24:25.899Z,24.90
2022-08-14T22:27:06.963Z,25.00
2022-08-14T22:29:34.633Z,24.90
2022-08-14T22:32:01.871Z,24.90
2022-08-14T22:34:33.987Z,24.80
2022-08-14T22:37:02.086Z,24.90
2022-08-14T22:40:15.357Z,24.80
2022-08-14T22:42:22.918Z,24.60
2022-08-14T22:44:56.433Z,24.50
2022-08-14T22:47:25.158Z,24.40
2022-08-14T22:50:32.770Z,24.40
2022-08-14T22:52:39.858Z,24.40
2022-08-14T22:55:07.830Z,24.50
2022-08-14T22:57:41.748Z,24.60
2022-08-14T23:00:13.161Z,24.60
2022-08-14T23:02:41.850Z,24.70
2022-08-14T23:05:13.045Z,24.60
2022-08-14T23:09:01.854Z,24.50
2022-08-14T23:10:33.802Z,24.50
2022-08-14T23:13:03.646Z,24.40
2022-08-14T23:15:30.734Z,24.40
2022-08-14T23:17:58.460Z,24.20
2022-08-14T23:20:29.302Z,24.20
2022-08-14T23:22:57.180Z,24.00
2022-08-14T23:25:45.779Z,24.00
2022-08-14T23:28:33.459Z,23.90
2022-08-14T23:31:12.417Z,23.70
2022-08-14T23:33:45.928Z,23.70
2022-08-14T23:36:32.889Z,23.80
2022-08-14T23:39:07.221Z,23.70
2022-08-14T23:41:46.588Z,23.70
2022-08-14T23:44:21.892Z,23.50
2022-08-14T23:46:49.584Z,23.40
2022-08-14T23:49:23.804Z,23.30
2022-08-14T23:52:49.693Z,23.20
2022-08-14T23:54:48.408Z,23.10
2022-08-14T23:57:19.492Z,23.00
2022-08-14T23:59:54.259Z,22.90
